^^
Grace C. Lehan Memorial Weather Station Historical Data
Daily Summary for May 3, 2021 Units:  Both    English   Metric
Daily Weekly Monthly Yearly
  High: Low: Average:
Temperature: 33.4 °F /  0.8 °C 29.8 °F /  -1.2 °C 31.5 °F /  -0.3 °C
Dew Point: 30.2 °F /  -1 °C 27.5 °F /  -2.5 °C 28.8 °F /  -1.8 °C
Humidity: 91.7% 88% 90%
Wind Speed: 0.4mph /  0.6km/h - 0mph /  0km/h
Wind Gust: 4mph /  6.4km/h - -
Wind- - NW
Pressure: 30.15 in /  1020.9 hPa 30.08 in /  1018.5 hPa -
Precipitation: 0.00 in /  0 mm    
 
 
Tabular Data for May 3, 2021
Time Temperature Dew Point Pressure Wind Wind Speed Wind Gust Humidity Rainfall Rate (Hourly) solar
00:04 33.4 °F /  0.8 °C 30.2 °F /  -1 °C 30.08in /  1018.5hPa Calm   4mph /  6.4km/h 88% 0.00in /  0mm 0 W/m2
00:09 33.3 °F /  0.7 °C 30.2 °F /  -1 °C 30.08in /  1018.5hPa Calm     88% 0.00in /  0mm 0 W/m2
00:14 33.3 °F /  0.7 °C 30.1 °F /  -1.1 °C 30.09in /  1018.8hPa Calm     88% 0.00in /  0mm 0 W/m2
00:19 33.3 °F /  0.7 °C 30.1 °F /  -1.1 °C 30.09in /  1018.8hPa Calm     88% 0.00in /  0mm 0 W/m2
00:24 33.2 °F /  0.7 °C 30.1 °F /  -1.1 °C 30.09in /  1018.8hPa Calm     88% 0.00in /  0mm 0 W/m2
00:29 33.1 °F /  0.6 °C 30 °F /  -1.1 °C 30.09in /  1018.8hPa Calm     88% 0.00in /  0mm 0 W/m2
00:34 33 °F /  0.6 °C 29.9 °F /  -1.2 °C 30.10in /  1019.2hPa Calm     88% 0.00in /  0mm 0 W/m2
00:39 33 °F /  0.6 °C 29.8 °F /  -1.2 °C 30.10in /  1019.2hPa Calm     88% 0.00in /  0mm 0 W/m2
00:44 32.9 °F /  0.5 °C 29.8 °F /  -1.2 °C 30.10in /  1019.2hPa Calm     88% 0.00in /  0mm 0 W/m2
00:49 32.8 °F /  0.4 °C 29.7 °F /  -1.3 °C 30.10in /  1019.2hPa Calm     88% 0.00in /  0mm 0 W/m2
00:54 32.7 °F /  0.4 °C 29.6 °F /  -1.3 °C 30.10in /  1019.2hPa Calm     88% 0.00in /  0mm 0 W/m2
00:59 32.6 °F /  0.3 °C 29.4 °F /  -1.4 °C 30.10in /  1019.2hPa Calm     88% 0.00in /  0mm 0 W/m2
01:04 32.5 °F /  0.3 °C 29.3 °F /  -1.5 °C 30.10in /  1019.2hPa Calm     88% 0.00in /  0mm 0 W/m2
01:09 32.4 °F /  0.2 °C 29.3 °F /  -1.5 °C 30.11in /  1019.5hPa Calm     88% 0.00in /  0mm 0 W/m2
01:14 32.3 °F /  0.2 °C 29.4 °F /  -1.4 °C 30.11in /  1019.5hPa Calm     88.8% 0.00in /  0mm 0 W/m2
01:19 32.2 °F /  0.1 °C 29.4 °F /  -1.4 °C 30.11in /  1019.5hPa WNW 0.1mph /  0.2km/h 3mph /  4.8km/h 89% 0.00in /  0mm 0 W/m2
01:24 32.2 °F /  0.1 °C 29.3 °F /  -1.5 °C 30.11in /  1019.5hPa WNW 0.1mph /  0.2km/h 3mph /  4.8km/h 89% 0.00in /  0mm 0 W/m2
01:29 32.1 °F /  0.1 °C 29.2 °F /  -1.6 °C 30.11in /  1019.5hPa WNW 0.2mph /  0.3km/h 3mph /  4.8km/h 89% 0.00in /  0mm 0 W/m2
01:34 32 °F /  0 °C 29.2 °F /  -1.6 °C 30.11in /  1019.5hPa WNW 0.1mph /  0.2km/h 3mph /  4.8km/h 89% 0.00in /  0mm 0 W/m2
01:39 32 °F /  0 °C 29.1 °F /  -1.6 °C 30.11in /  1019.5hPa WNW 0.1mph /  0.2km/h 2mph /  3.2km/h 89% 0.00in /  0mm 0 W/m2
01:44 31.9 °F /  -0.1 °C 29.3 °F /  -1.5 °C 30.12in /  1019.9hPa WNW 0.2mph /  0.3km/h 3mph /  4.8km/h 89.8% 0.00in /  0mm 0 W/m2
01:49 31.9 °F /  -0.1 °C 29.2 °F /  -1.6 °C 30.12in /  1019.9hPa NW 0.3mph /  0.5km/h 3mph /  4.8km/h 89.7% 0.00in /  0mm 0 W/m2
01:54 31.8 °F /  -0.1 °C 29.1 °F /  -1.6 °C 30.12in /  1019.9hPa NW 0.3mph /  0.5km/h 3mph /  4.8km/h 89.6% 0.00in /  0mm 0 W/m2
01:59 31.7 °F /  -0.2 °C 29.1 °F /  -1.6 °C 30.11in /  1019.5hPa NW 0.4mph /  0.6km/h 3mph /  4.8km/h 90% 0.00in /  0mm 0 W/m2
02:04 31.7 °F /  -0.2 °C 29.1 °F /  -1.6 °C 30.12in /  1019.9hPa NW 0.2mph /  0.3km/h 3mph /  4.8km/h 90% 0.00in /  0mm 0 W/m2
02:09 31.7 °F /  -0.2 °C 29.1 °F /  -1.6 °C 30.12in /  1019.9hPa Calm   3mph /  4.8km/h 90% 0.00in /  0mm 0 W/m2
02:14 31.6 °F /  -0.2 °C 29.1 °F /  -1.6 °C 30.12in /  1019.9hPa NW 0.1mph /  0.2km/h 3mph /  4.8km/h 90% 0.00in /  0mm 0 W/m2
02:19 31.6 °F /  -0.2 °C 29 °F /  -1.7 °C 30.13in /  1020.2hPa NW 0.1mph /  0.2km/h 3mph /  4.8km/h 90% 0.00in /  0mm 0 W/m2
02:24 31.5 °F /  -0.3 °C 29 °F /  -1.7 °C 30.13in /  1020.2hPa Calm   3mph /  4.8km/h 90% 0.00in /  0mm 0 W/m2
02:29 31.5 °F /  -0.3 °C 28.9 °F /  -1.7 °C 30.13in /  1020.2hPa Calm   3mph /  4.8km/h 90% 0.00in /  0mm 0 W/m2
02:34 31.5 °F /  -0.3 °C 28.9 °F /  -1.7 °C 30.13in /  1020.2hPa Calm   3mph /  4.8km/h 90% 0.00in /  0mm 0 W/m2
02:39 31.4 °F /  -0.3 °C 28.8 °F /  -1.8 °C 30.13in /  1020.2hPa Calm     90% 0.00in /  0mm 0 W/m2
02:44 31.4 °F /  -0.3 °C 28.8 °F /  -1.8 °C 30.13in /  1020.2hPa Calm     90% 0.00in /  0mm 0 W/m2
02:49 31.3 °F /  -0.4 °C 28.7 °F /  -1.8 °C 30.13in /  1020.2hPa Calm     90% 0.00in /  0mm 0 W/m2
02:54 31.2 °F /  -0.4 °C 28.6 °F /  -1.9 °C 30.13in /  1020.2hPa Calm     90% 0.00in /  0mm 0 W/m2
02:59 31.1 °F /  -0.5 °C 28.6 °F /  -1.9 °C 30.13in /  1020.2hPa Calm     90% 0.00in /  0mm 0 W/m2
03:04 31.1 °F /  -0.5 °C 28.5 °F /  -1.9 °C 30.13in /  1020.2hPa Calm     90% 0.00in /  0mm 0 W/m2
03:09 31 °F /  -0.6 °C 28.4 °F /  -2 °C 30.12in /  1019.9hPa Calm     90% 0.00in /  0mm 0 W/m2
03:14 30.9 °F /  -0.6 °C 28.4 °F /  -2 °C 30.12in /  1019.9hPa Calm     90.2% 0.00in /  0mm 0 W/m2
03:19 30.8 °F /  -0.7 °C 28.5 °F /  -1.9 °C 30.12in /  1019.9hPa Calm     91% 0.00in /  0mm 0 W/m2
03:24 30.7 °F /  -0.7 °C 28.4 °F /  -2 °C 30.13in /  1020.2hPa Calm     91% 0.00in /  0mm 0 W/m2
03:29 30.7 °F /  -0.7 °C 28.3 °F /  -2.1 °C 30.12in /  1019.9hPa Calm     91% 0.00in /  0mm 0 W/m2
03:34 30.6 °F /  -0.8 °C 28.3 °F /  -2.1 °C 30.12in /  1019.9hPa Calm     91% 0.00in /  0mm 0 W/m2
03:39 30.5 °F /  -0.8 °C 28.2 °F /  -2.1 °C 30.12in /  1019.9hPa Calm     91% 0.00in /  0mm 0 W/m2
03:44 30.4 °F /  -0.9 °C 28 °F /  -2.2 °C 30.12in /  1019.9hPa Calm     91% 0.00in /  0mm 0 W/m2
03:49 30.3 °F /  -0.9 °C 28 °F /  -2.2 °C 30.12in /  1019.9hPa Calm     91% 0.00in /  0mm 0 W/m2
03:54 30.2 °F /  -1 °C 27.9 °F /  -2.3 °C 30.12in /  1019.9hPa Calm     91% 0.00in /  0mm 0 W/m2
03:59 30.2 °F /  -1 °C 27.8 °F /  -2.3 °C 30.12in /  1019.9hPa Calm     91% 0.00in /  0mm 0 W/m2
04:00 30.1 °F /  -1.1 °C 27.8 °F /  -2.3 °C 30.11in /  1019.5hPa Calm     91% 0.00in /  0mm 0 W/m2
04:09 29.9 °F /  -1.2 °C 27.6 °F /  -2.4 °C 30.11in /  1019.5hPa Calm     91% 0.00in /  0mm 0 W/m2
04:14 29.9 °F /  -1.2 °C 27.6 °F /  -2.4 °C 30.11in /  1019.5hPa Calm     91% 0.00in /  0mm 0 W/m2
04:19 29.8 °F /  -1.2 °C 27.5 °F /  -2.5 °C 30.10in /  1019.2hPa NW 0.3mph /  0.5km/h 3mph /  4.8km/h 91% 0.00in /  0mm 0 W/m2
04:24 29.8 °F /  -1.2 °C 27.5 °F /  -2.5 °C 30.11in /  1019.5hPa Calm   3mph /  4.8km/h 91% 0.00in /  0mm 0 W/m2
04:29 29.8 °F /  -1.2 °C 27.5 °F /  -2.5 °C 30.12in /  1019.9hPa Calm   3mph /  4.8km/h 91% 0.00in /  0mm 0 W/m2
04:34 29.8 °F /  -1.2 °C 27.5 °F /  -2.5 °C 30.13in /  1020.2hPa NW 0.2mph /  0.3km/h 3mph /  4.8km/h 91% 0.00in /  0mm 0 W/m2
04:39 29.8 °F /  -1.2 °C 27.6 °F /  -2.4 °C 30.14in /  1020.5hPa NW 0.1mph /  0.2km/h 3mph /  4.8km/h 91.6% 0.00in /  0mm 0 W/m2
04:44 29.8 °F /  -1.2 °C 27.6 °F /  -2.4 °C 30.14in /  1020.5hPa Calm   3mph /  4.8km/h 91.6% 0.00in /  0mm 0 W/m2
04:48 29.8 °F /  -1.2 °C 27.7 °F /  -2.4 °C 30.15in /  1020.9hPa Calm   3mph /  4.8km/h 91.7% 0.00in /  0mm 0 W/m2
Hartford County Weather
Compliments of Weather Underground - 2 mb